Time;durP1;ratioP1;P1;durP2;ratioP2;P2;SDS_P1;SDS_P2;PMS_P1;PMS_P2;Temp;Humidity;BMP_temperature;BMP_pressure;BME280_temperature;BME280_humidity;BME280_pressure;Samples;Min_cycle;Max_cycle;Signal;HPM_P1;HPM_P2
2022/10/04 00:00:44;;;;;;;;;;;;;;;;;;2131117;27;19953;-43
2022/10/04 00:01:45;;;;;;;;;;;;;;;;;;2123970;27;19923;-43
2022/10/04 00:02:46;;;;;;;;;;;;;;;;;;2123981;28;20303;-43
2022/10/04 00:03:47;;;;;;;;;;;;;;;;;;2123998;28;19931;-43
2022/10/04 00:04:47;;;;;;;;;;;;;;;;;;2124376;28;19930;-43
2022/10/04 00:05:48;;;;;;;;;;;;;;;;;;2123943;28;19935;-43
2022/10/04 00:06:49;;;;;;;;;;;;;;;;;;2123926;27;19954;-43
2022/10/04 00:07:50;;;;;;;;;;;;;;;;;;2124052;28;19930;-43
2022/10/04 00:08:51;;;;;;;;;;;;;;;;;;2124078;28;20039;-43
2022/10/04 00:09:52;;;;;;;;;;;;;;;;;;2123945;28;20280;-44
2022/10/04 00:10:52;;;;;;;;;;;;;;;;;;2123968;28;19927;-43
2022/10/04 00:11:53;;;;;;;;;;;;;;;;;;2131000;27;19958;-43
2022/10/04 00:12:54;;;;;;;;;;;;;;;;;;2132565;27;19968;-43
2022/10/04 00:13:55;;;;;;;;;;;;;;;;;;2132397;27;19923;-43
2022/10/04 00:14:56;;;;;;;;;;;;;;;;;;2132738;27;19973;-43
2022/10/04 00:15:56;;;;;;;;;;;;;;;;;;2132628;27;19930;-43
2022/10/04 00:16:58;;;;;;;;;;;;;;;;;;2132411;27;20292;-43
2022/10/04 00:17:59;;;;;;;;;;;;;;;;;;2132598;27;19923;-43
2022/10/04 00:18:59;;;;;;;;;;;;;;;;;;2132545;27;19923;-43
2022/10/04 00:20:00;;;;;;;;;;;;;;;;;;2132476;27;19930;-44
2022/10/04 00:21:01;;;;;;;;;;;;;;;;;;2132447;27;19923;-43
2022/10/04 00:22:02;;;;;;;;;;;;;;;;;;2132581;27;19923;-43
2022/10/04 00:23:04;;;;;;;;;;;;;;;;;;2132474;27;19923;-43
2022/10/04 00:24:04;;;;;;;;;;;;;;;;;;2132254;27;19923;-43
2022/10/04 00:25:05;;;;;;;;;;;;;;;;;;2132602;27;19930;-43
2022/10/04 00:26:06;;;;;;;;;;;;;;;;;;2132632;27;19927;-45
2022/10/04 00:27:07;;;;;;;;;;;;;;;;;;2132322;27;19923;-45
2022/10/04 00:28:08;;;;;;;;;;;;;;;;;;2132439;27;20013;-45
2022/10/04 00:29:09;;;;;;;;;;;;;;;;;;2132490;27;19923;-46
2022/10/04 00:30:10;;;;;;;;;;;;;;;;;;2132434;27;20380;-46
2022/10/04 00:31:11;;;;;;;;;;;;;;;;;;2132437;27;20025;-46
2022/10/04 00:32:11;;;;;;;;;;;;;;;;;;2132570;27;19927;-46
2022/10/04 00:33:12;;;;;;;;;;;;;;;;;;2132460;27;20015;-46
2022/10/04 00:34:13;;;;;;;;;;;;;;;;;;2132361;27;20092;-46
2022/10/04 00:35:14;;;;;;;;;;;;;;;;;;2132483;27;19930;-45
2022/10/04 00:36:15;;;;;;;;;;;;;;;;;;2132360;27;19977;-46
2022/10/04 00:37:16;;;;;;;;;;;;;;;;;;2132348;27;19953;-46
2022/10/04 00:38:16;;;;;;;;;;;;;;;;;;2132519;27;19927;-43
2022/10/04 00:39:17;;;;;;;;;;;;;;;;;;2132398;27;19950;-44
2022/10/04 00:40:18;;;;;;;;;;;;;;;;;;2132481;27;20362;-45
2022/10/04 00:41:19;;;;;;;;;;;;;;;;;;2132300;27;20022;-44
2022/10/04 00:42:20;;;;;;;;;;;;;;;;;;2132240;27;19959;-44
2022/10/04 00:43:21;;;;;;;;;;;;;;;;;;2132605;27;19973;-44
2022/10/04 00:44:22;;;;;;;;;;;;;;;;;;2132291;27;20280;-44
2022/10/04 00:45:23;;;;;;;;;;;;;;;;;;2132378;27;19923;-45
2022/10/04 00:46:24;;;;;;;;;;;;;;;;;;2131795;27;20261;-44
2022/10/04 00:47:25;;;;;;;;;;;;;;;;;;2132498;27;20322;-44
2022/10/04 00:48:25;;;;;;;;;;;;;;;;;;2132324;27;19976;-45
2022/10/04 00:49:31;;;;;;;;;;;;;;;;;;2132418;27;20005;-44
2022/10/04 00:50:32;;;;;;;;;;;;;;;;;;2132331;27;19927;-45
2022/10/04 00:51:33;;;;;;;;;;;;;;;;;;2132229;27;20407;-44
2022/10/04 00:52:34;;;;;;;;;;;;;;;;;;2132238;27;19923;-44
2022/10/04 00:53:34;;;;;;;;;;;;;;;;;;2132354;27;19974;-43
2022/10/04 00:54:35;;;;;;;;;;;;;;;;;;2132163;27;19935;-45
2022/10/04 00:55:36;;;;;;;;;;;;;;;;;;2132382;27;19976;-43
2022/10/04 00:56:37;;;;;;;;;;;;;;;;;;2132349;27;19927;-44
2022/10/04 00:57:38;;;;;;;;;;;;;;;;;;2125204;27;19934;-45
2022/10/04 00:58:38;;;;;;;;;;;;;;;;;;2123715;28;19924;-44
2022/10/04 00:59:39;;;;;;;;;;;;;;;;;;2124165;28;19966;-47
2022/10/04 01:00:40;;;;;;;;;;;;;;;;;;2123773;28;19923;-48
2022/10/04 01:01:41;;;;;;;;;;;;;;;;;;2123702;27;19976;-47
2022/10/04 01:02:43;;;;;;;;;;;;;;;;;;2123734;28;20014;-47
2022/10/04 01:03:44;;;;;;;;;;;;;;;;;;2123557;28;20445;-48
2022/10/04 01:04:44;;;;;;;;;;;;;;;;;;2123765;28;20045;-48
2022/10/04 01:05:45;;;;;;;;;;;;;;;;;;2123540;28;20385;-47
2022/10/04 01:06:46;;;;;;;;;;;;;;;;;;2123477;27;19930;-48
2022/10/04 01:07:47;;;;;;;;;;;;;;;;;;2123665;28;20006;-48
2022/10/04 01:08:47;;;;;;;;;;;;;;;;;;2123553;28;19924;-48
2022/10/04 01:09:49;;;;;;;;;;;;;;;;;;2123516;28;20370;-48
2022/10/04 01:10:50;;;;;;;;;;;;;;;;;;2123563;28;20270;-48
2022/10/04 01:11:51;;;;;;;;;;;;;;;;;;2130322;27;19979;-52
2022/10/04 01:12:51;;;;;;;;;;;;;;;;;;2132171;27;19923;-52
2022/10/04 01:13:52;;;;;;;;;;;;;;;;;;2132104;27;19978;-48
2022/10/04 01:14:53;;;;;;;;;;;;;;;;;;2132014;27;19963;-49
2022/10/04 01:15:54;;;;;;;;;;;;;;;;;;2132131;27;20424;-49
2022/10/04 01:16:55;;;;;;;;;;;;;;;;;;2131957;27;19971;-48
2022/10/04 01:17:57;;;;;;;;;;;;;;;;;;2132216;27;19988;-49
2022/10/04 01:19:00;;;;;;;;;;;;;;;;;;2132237;27;19922;-47
2022/10/04 01:20:01;;;;;;;;;;;;;;;;;;2132080;27;19923;-48
2022/10/04 01:21:02;;;;;;;;;;;;;;;;;;2132019;27;19923;-48
2022/10/04 01:22:03;;;;;;;;;;;;;;;;;;2132053;27;20296;-47
2022/10/04 01:23:04;;;;;;;;;;;;;;;;;;2132246;27;19923;-49
2022/10/04 01:24:05;;;;;;;;;;;;;;;;;;2131981;27;20296;-48
2022/10/04 01:25:06;;;;;;;;;;;;;;;;;;2132168;27;20069;-49
2022/10/04 01:26:07;;;;;;;;;;;;;;;;;;2132201;27;20264;-48
2022/10/04 01:27:07;;;;;;;;;;;;;;;;;;2132105;27;20383;-48
2022/10/04 01:28:08;;;;;;;;;;;;;;;;;;2132208;27;20371;-49
2022/10/04 01:29:09;;;;;;;;;;;;;;;;;;2132155;27;19944;-47
2022/10/04 01:30:10;;;;;;;;;;;;;;;;;;2131989;27;19923;-52
2022/10/04 01:31:11;;;;;;;;;;;;;;;;;;2132061;27;20183;-49
2022/10/04 01:32:12;;;;;;;;;;;;;;;;;;2132059;27;20067;-47
2022/10/04 01:33:12;;;;;;;;;;;;;;;;;;2131958;27;19930;-46
2022/10/04 01:34:13;;;;;;;;;;;;;;;;;;2131942;27;19923;-46
2022/10/04 01:35:14;;;;;;;;;;;;;;;;;;2132039;27;19931;-47
2022/10/04 01:36:15;;;;;;;;;;;;;;;;;;2132088;27;20283;-47
2022/10/04 01:37:16;;;;;;;;;;;;;;;;;;2131955;27;19927;-47
2022/10/04 01:38:17;;;;;;;;;;;;;;;;;;2132112;27;20252;-50
2022/10/04 01:39:17;;;;;;;;;;;;;;;;;;2132213;27;19950;-49
2022/10/04 01:40:18;;;;;;;;;;;;;;;;;;2131895;27;20019;-48
2022/10/04 01:41:19;;;;;;;;;;;;;;;;;;2132065;27;19923;-49
2022/10/04 01:42:20;;;;;;;;;;;;;;;;;;2131979;27;19923;-50
2022/10/04 01:43:21;;;;;;;;;;;;;;;;;;2132065;27;19946;-48
2022/10/04 01:44:23;;;;;;;;;;;;;;;;;;2131902;27;19927;-49
2022/10/04 01:45:23;;;;;;;;;;;;;;;;;;2132157;27;19930;-49
2022/10/04 01:46:24;;;;;;;;;;;;;;;;;;2131884;27;20302;-48
2022/10/04 01:47:25;;;;;;;;;;;;;;;;;;2132026;27;19976;-49
2022/10/04 01:48:26;;;;;;;;;;;;;;;;;;2132055;27;19927;-52
2022/10/04 01:49:27;;;;;;;;;;;;;;;;;;2132292;27;20337;-49
2022/10/04 01:50:28;;;;;;;;;;;;;;;;;;2131910;27;20371;-51
2022/10/04 01:51:29;;;;;;;;;;;;;;;;;;2131849;27;19930;-49
2022/10/04 01:52:30;;;;;;;;;;;;;;;;;;2132102;27;20439;-49
2022/10/04 01:53:30;;;;;;;;;;;;;;;;;;2127977;27;19959;-49
2022/10/04 01:54:31;;;;;;;;;;;;;;;;;;2123408;28;19923;-49
2022/10/04 01:55:33;;;;;;;;;;;;;;;;;;2123290;28;19928;-48
2022/10/04 01:56:34;;;;;;;;;;;;;;;;;;2123419;27;19924;-50
2022/10/04 01:57:34;;;;;;;;;;;;;;;;;;2123086;27;19931;-48
2022/10/04 01:58:35;;;;;;;;;;;;;;;;;;2122523;28;19923;-47
2022/10/04 01:59:36;;;;;;;;;;;;;;;;;;2123244;28;19931;-49
2022/10/04 02:00:37;;;;;;;;;;;;;;;;;;2123453;28;19967;-48
2022/10/04 02:01:37;;;;;;;;;;;;;;;;;;2123237;27;19923;-49
2022/10/04 02:02:38;;;;;;;;;;;;;;;;;;2123242;28;19923;-48
2022/10/04 02:03:39;;;;;;;;;;;;;;;;;;2123238;28;20407;-46
2022/10/04 02:04:40;;;;;;;;;;;;;;;;;;2123198;28;20026;-47
2022/10/04 02:05:41;;;;;;;;;;;;;;;;;;2123375;28;19924;-46
2022/10/04 02:06:42;;;;;;;;;;;;;;;;;;2123133;27;19923;-46
2022/10/04 02:07:43;;;;;;;;;;;;;;;;;;2123255;28;19974;-47
2022/10/04 02:08:43;;;;;;;;;;;;;;;;;;2123311;28;19931;-47
2022/10/04 02:09:44;;;;;;;;;;;;;;;;;;2123413;28;20501;-46
2022/10/04 02:10:45;;;;;;;;;;;;;;;;;;2123523;28;19924;-47
2022/10/04 02:11:46;;;;;;;;;;;;;;;;;;2129110;27;19923;-46
2022/10/04 02:12:47;;;;;;;;;;;;;;;;;;2131749;27;19935;-46
2022/10/04 02:13:48;;;;;;;;;;;;;;;;;;2131731;27;19930;-45
2022/10/04 02:14:51;;;;;;;;;;;;;;;;;;2131739;27;19974;-46
2022/10/04 02:15:52;;;;;;;;;;;;;;;;;;2132003;27;19930;-44
2022/10/04 02:16:53;;;;;;;;;;;;;;;;;;2131677;27;19942;-44
2022/10/04 02:17:54;;;;;;;;;;;;;;;;;;2131731;27;19978;-44
2022/10/04 02:18:54;;;;;;;;;;;;;;;;;;2132329;27;20017;-49
2022/10/04 02:19:55;;;;;;;;;;;;;;;;;;2131698;27;19923;-48
2022/10/04 02:20:56;;;;;;;;;;;;;;;;;;2131859;27;20444;-47
2022/10/04 02:21:57;;;;;;;;;;;;;;;;;;2131870;27;19923;-48
2022/10/04 02:22:58;;;;;;;;;;;;;;;;;;2131737;27;19972;-51
2022/10/04 02:23:59;;;;;;;;;;;;;;;;;;2131814;27;19924;-47
2022/10/04 02:24:59;;;;;;;;;;;;;;;;;;2131766;27;20361;-49
2022/10/04 02:26:00;;;;;;;;;;;;;;;;;;2131836;27;19972;-49
2022/10/04 02:27:01;;;;;;;;;;;;;;;;;;2131269;27;19930;-49
2022/10/04 02:28:02;;;;;;;;;;;;;;;;;;2131726;27;19929;-50
2022/10/04 02:29:03;;;;;;;;;;;;;;;;;;2131802;27;19930;-50
2022/10/04 02:30:04;;;;;;;;;;;;;;;;;;2131656;27;19930;-47
2022/10/04 02:33:42;;;;;;;;;;;;;;;;;;2117693;27;20316;-48
2022/10/04 02:34:44;;;;;;;;;;;;;;;;;;2131715;27;19963;-47
2022/10/04 02:35:45;;;;;;;;;;;;;;;;;;2131912;27;19923;-44
2022/10/04 02:36:50;;;;;;;;;;;;;;;;;;2131713;27;19924;-44
2022/10/04 02:37:51;;;;;;;;;;;;;;;;;;2132026;27;19923;-45
2022/10/04 02:38:52;;;;;;;;;;;;;;;;;;2131604;27;19924;-45
2022/10/04 02:39:53;;;;;;;;;;;;;;;;;;2131662;27;19923;-45
2022/10/04 02:40:54;;;;;;;;;;;;;;;;;;2131571;27;19964;-45
2022/10/04 02:41:55;;;;;;;;;;;;;;;;;;2131558;27;19923;-46
2022/10/04 02:42:58;;;;;;;;;;;;;;;;;;2131625;27;19927;-45
2022/10/04 02:43:59;;;;;;;;;;;;;;;;;;2131815;27;19924;-47
2022/10/04 02:45:00;;;;;;;;;;;;;;;;;;2131554;27;19931;-47
2022/10/04 02:46:03;;;;;;;;;;;;;;;;;;2131553;27;19923;-47
2022/10/04 02:47:04;;;;;;;;;;;;;;;;;;2131680;27;19923;-46
2022/10/04 02:48:04;;;;;;;;;;;;;;;;;;2131571;27;20030;-46
2022/10/04 02:49:05;;;;;;;;;;;;;;;;;;2131734;27;20040;-47
2022/10/04 02:50:06;;;;;;;;;;;;;;;;;;2131933;27;20377;-46
2022/10/04 02:51:07;;;;;;;;;;;;;;;;;;2131626;27;19929;-45
2022/10/04 02:52:08;;;;;;;;;;;;;;;;;;2131472;27;20295;-46
2022/10/04 02:53:10;;;;;;;;;;;;;;;;;;2131663;27;19923;-45
2022/10/04 02:54:10;;;;;;;;;;;;;;;;;;2131506;27;19930;-45
2022/10/04 02:55:11;;;;;;;;;;;;;;;;;;2131456;27;19923;-44
2022/10/04 02:56:12;;;;;;;;;;;;;;;;;;2131572;27;19927;-45
2022/10/04 02:57:14;;;;;;;;;;;;;;;;;;2131564;27;19929;-45
2022/10/04 02:58:14;;;;;;;;;;;;;;;;;;2131714;27;19923;-45
2022/10/04 02:59:15;;;;;;;;;;;;;;;;;;2131546;27;19923;-44
2022/10/04 03:00:16;;;;;;;;;;;;;;;;;;2131502;27;19956;-45
2022/10/04 03:01:17;;;;;;;;;;;;;;;;;;2131518;27;19974;-45
2022/10/04 03:02:18;;;;;;;;;;;;;;;;;;2131402;27;19923;-44
2022/10/04 03:03:28;;;;;;;;;;;;;;;;;;2131524;27;19924;-44
2022/10/04 03:04:29;;;;;;;;;;;;;;;;;;2131804;27;20404;-44
2022/10/04 03:05:30;;;;;;;;;;;;;;;;;;2131622;27;20017;-44
2022/10/04 03:06:31;;;;;;;;;;;;;;;;;;2131617;27;19924;-47
2022/10/04 03:07:32;;;;;;;;;;;;;;;;;;2131631;27;19979;-47
2022/10/04 03:08:33;;;;;;;;;;;;;;;;;;2131629;27;19924;-46
2022/10/04 03:09:34;;;;;;;;;;;;;;;;;;2131958;27;20276;-47
2022/10/04 03:10:35;;;;;;;;;;;;;;;;;;2133053;27;19934;-47
2022/10/04 03:11:35;;;;;;;;;;;;;;;;;;2128072;27;19930;-45
2022/10/04 03:12:37;;;;;;;;;;;;;;;;;;2124523;28;19981;-45
2022/10/04 03:13:38;;;;;;;;;;;;;;;;;;2131808;27;20280;-45
2022/10/04 03:14:39;;;;;;;;;;;;;;;;;;2133049;27;19923;-45
2022/10/04 03:15:40;;;;;;;;;;;;;;;;;;2132949;27;19966;-45
2022/10/04 03:16:41;;;;;;;;;;;;;;;;;;2132806;27;19975;-44
2022/10/04 03:17:41;;;;;;;;;;;;;;;;;;2133033;27;20187;-44
2022/10/04 03:18:42;;;;;;;;;;;;;;;;;;2132904;27;19966;-45
2022/10/04 03:19:43;;;;;;;;;;;;;;;;;;2133073;27;19923;-45
2022/10/04 03:20:44;;;;;;;;;;;;;;;;;;2132809;27;20026;-44
2022/10/04 03:21:45;;;;;;;;;;;;;;;;;;2132968;27;19968;-45
2022/10/04 03:22:46;;;;;;;;;;;;;;;;;;2133032;27;20320;-44
2022/10/04 03:23:47;;;;;;;;;;;;;;;;;;2132832;27;19923;-45
2022/10/04 03:24:48;;;;;;;;;;;;;;;;;;2133017;27;19923;-46
2022/10/04 03:25:49;;;;;;;;;;;;;;;;;;2132800;27;20026;-49
2022/10/04 03:26:50;;;;;;;;;;;;;;;;;;2132703;27;19930;-46
2022/10/04 03:27:50;;;;;;;;;;;;;;;;;;2132939;27;19930;-47
2022/10/04 03:28:51;;;;;;;;;;;;;;;;;;2132972;27;19967;-47
2022/10/04 03:29:52;;;;;;;;;;;;;;;;;;2132783;27;19930;-46
2022/10/04 03:30:58;;;;;;;;;;;;;;;;;;2133000;27;19958;-46
2022/10/04 03:31:59;;;;;;;;;;;;;;;;;;2132872;27;19969;-47
2022/10/04 03:33:00;;;;;;;;;;;;;;;;;;2132946;27;20336;-46
2022/10/04 03:34:01;;;;;;;;;;;;;;;;;;2133117;27;19923;-45
2022/10/04 03:35:02;;;;;;;;;;;;;;;;;;2132708;27;20423;-45
2022/10/04 03:36:02;;;;;;;;;;;;;;;;;;2132961;27;19923;-46
2022/10/04 03:37:03;;;;;;;;;;;;;;;;;;2132737;27;19923;-46
2022/10/04 03:38:04;;;;;;;;;;;;;;;;;;2133114;27;19923;-45
2022/10/04 03:39:05;;;;;;;;;;;;;;;;;;2132844;27;19930;-45
2022/10/04 03:40:06;;;;;;;;;;;;;;;;;;2132936;27;20261;-45
2022/10/04 03:41:07;;;;;;;;;;;;;;;;;;2132716;27;19966;-45
2022/10/04 03:42:09;;;;;;;;;;;;;;;;;;2132672;27;19930;-45
2022/10/04 03:43:11;;;;;;;;;;;;;;;;;;2132735;27;20330;-45
2022/10/04 03:44:11;;;;;;;;;;;;;;;;;;2132735;27;20284;-45
2022/10/04 03:45:14;;;;;;;;;;;;;;;;;;2132706;27;19934;-45
2022/10/04 03:46:15;;;;;;;;;;;;;;;;;;2132752;27;20380;-46
2022/10/04 03:47:16;;;;;;;;;;;;;;;;;;2132801;27;19959;-46
2022/10/04 03:48:16;;;;;;;;;;;;;;;;;;2132727;27;19927;-47
2022/10/04 03:49:17;;;;;;;;;;;;;;;;;;2132834;27;19923;-48
2022/10/04 03:50:18;;;;;;;;;;;;;;;;;;2132612;27;20031;-48
2022/10/04 03:51:20;;;;;;;;;;;;;;;;;;2132878;27;19930;-47
2022/10/04 03:52:21;;;;;;;;;;;;;;;;;;2132661;27;19923;-49
2022/10/04 03:53:21;;;;;;;;;;;;;;;;;;2132812;27;19923;-48
2022/10/04 03:54:22;;;;;;;;;;;;;;;;;;2132769;27;20382;-48
2022/10/04 03:55:23;;;;;;;;;;;;;;;;;;2132681;27;19939;-45
2022/10/04 03:56:24;;;;;;;;;;;;;;;;;;2132566;27;19930;-45
2022/10/04 03:57:25;;;;;;;;;;;;;;;;;;2132663;27;20017;-46
2022/10/04 03:58:25;;;;;;;;;;;;;;;;;;2132770;27;19945;-45
2022/10/04 03:59:26;;;;;;;;;;;;;;;;;;2132672;27;19931;-45
2022/10/04 04:00:27;;;;;;;;;;;;;;;;;;2132554;27;19927;-45
2022/10/04 04:01:28;;;;;;;;;;;;;;;;;;2132622;27;19974;-46
2022/10/04 04:02:29;;;;;;;;;;;;;;;;;;2132743;27;19967;-45
2022/10/04 04:03:30;;;;;;;;;;;;;;;;;;2132866;27;19967;-46
2022/10/04 04:04:31;;;;;;;;;;;;;;;;;;2132739;27;19930;-45
2022/10/04 04:05:31;;;;;;;;;;;;;;;;;;2132682;27;20299;-45
2022/10/04 04:06:32;;;;;;;;;;;;;;;;;;2132486;27;19950;-47
2022/10/04 04:07:33;;;;;;;;;;;;;;;;;;2133056;27;20275;-45
2022/10/04 04:08:34;;;;;;;;;;;;;;;;;;2132553;27;19976;-45
2022/10/04 04:09:35;;;;;;;;;;;;;;;;;;2132631;27;20390;-45
2022/10/04 04:10:36;;;;;;;;;;;;;;;;;;2132677;27;19929;-46
2022/10/04 04:11:37;;;;;;;;;;;;;;;;;;2132536;27;19934;-49
2022/10/04 04:12:38;;;;;;;;;;;;;;;;;;2132520;27;19923;-49
2022/10/04 04:13:39;;;;;;;;;;;;;;;;;;2132497;27;19958;-48
2022/10/04 04:14:39;;;;;;;;;;;;;;;;;;2132662;27;20409;-48
2022/10/04 04:15:44;;;;;;;;;;;;;;;;;;2132428;27;19953;-48
2022/10/04 04:16:45;;;;;;;;;;;;;;;;;;2132468;27;20391;-48
2022/10/04 04:17:46;;;;;;;;;;;;;;;;;;2132602;27;20022;-48
2022/10/04 04:18:46;;;;;;;;;;;;;;;;;;2132653;27;19927;-48
2022/10/04 04:19:47;;;;;;;;;;;;;;;;;;2132510;27;19931;-48
2022/10/04 04:20:48;;;;;;;;;;;;;;;;;;2132145;27;20352;-48
2022/10/04 04:21:49;;;;;;;;;;;;;;;;;;2131927;27;19968;-47
2022/10/04 04:22:50;;;;;;;;;;;;;;;;;;2132490;27;19923;-48
2022/10/04 04:23:51;;;;;;;;;;;;;;;;;;2132402;27;19977;-48
2022/10/04 04:24:51;;;;;;;;;;;;;;;;;;2132474;27;19930;-49
2022/10/04 04:25:53;;;;;;;;;;;;;;;;;;2132825;27;19995;-48
2022/10/04 04:26:54;;;;;;;;;;;;;;;;;;2132321;27;20325;-49
2022/10/04 04:27:55;;;;;;;;;;;;;;;;;;2132487;27;19927;-48
2022/10/04 04:28:56;;;;;;;;;;;;;;;;;;2132485;27;19930;-50
2022/10/04 04:29:57;;;;;;;;;;;;;;;;;;2132564;27;20304;-46
2022/10/04 04:30:57;;;;;;;;;;;;;;;;;;2132485;27;20033;-45
2022/10/04 04:31:58;;;;;;;;;;;;;;;;;;2132523;27;20435;-46
2022/10/04 04:32:59;;;;;;;;;;;;;;;;;;2132468;27;19954;-45
2022/10/04 04:34:00;;;;;;;;;;;;;;;;;;2132527;27;19930;-46
2022/10/04 04:35:05;;;;;;;;;;;;;;;;;;2132336;27;20060;-45
2022/10/04 04:36:06;;;;;;;;;;;;;;;;;;2132544;27;19923;-45
2022/10/04 04:37:07;;;;;;;;;;;;;;;;;;2132452;27;20388;-46
2022/10/04 04:38:08;;;;;;;;;;;;;;;;;;2132358;27;20333;-45
2022/10/04 04:40:28;;;;;;;;;;;;;;;;;;2132518;27;19929;-46
2022/10/04 04:41:30;;;;;;;;;;;;;;;;;;2132512;27;19931;-45
2022/10/04 04:42:31;;;;;;;;;;;;;;;;;;2132233;27;20287;-45
2022/10/04 04:43:31;;;;;;;;;;;;;;;;;;2132349;27;19930;-46
2022/10/04 04:44:32;;;;;;;;;;;;;;;;;;2132566;27;20376;-45
2022/10/04 04:45:34;;;;;;;;;;;;;;;;;;2132442;27;19923;-45
2022/10/04 04:46:35;;;;;;;;;;;;;;;;;;2132473;27;19979;-46
2022/10/04 04:47:36;;;;;;;;;;;;;;;;;;2132356;27;19996;-45
2022/10/04 04:48:37;;;;;;;;;;;;;;;;;;2132399;27;19938;-46
2022/10/04 04:49:38;;;;;;;;;;;;;;;;;;2132628;27;19923;-48
2022/10/04 04:50:39;;;;;;;;;;;;;;;;;;2132411;27;19930;-47
2022/10/04 04:51:40;;;;;;;;;;;;;;;;;;2132441;27;19930;-47
2022/10/04 04:52:41;;;;;;;;;;;;;;;;;;2132481;27;19923;-45
2022/10/04 04:53:42;;;;;;;;;;;;;;;;;;2132283;27;19923;-46
2022/10/04 04:54:45;;;;;;;;;;;;;;;;;;2132208;27;19923;-45
2022/10/04 04:55:47;;;;;;;;;;;;;;;;;;2132360;27;19927;-45
2022/10/04 04:57:04;;;;;;;;;;;;;;;;;;2132330;27;19923;-45
2022/10/04 04:58:07;;;;;;;;;;;;;;;;;;2132236;27;19923;-45
2022/10/04 04:59:08;;;;;;;;;;;;;;;;;;2132364;27;19931;-45
2022/10/04 05:00:08;;;;;;;;;;;;;;;;;;2132231;27;20325;-45
2022/10/04 05:01:09;;;;;;;;;;;;;;;;;;2132374;27;19946;-44
2022/10/04 05:02:10;;;;;;;;;;;;;;;;;;2132247;27;19923;-45
2022/10/04 05:03:11;;;;;;;;;;;;;;;;;;2132187;27;19954;-46
2022/10/04 05:04:12;;;;;;;;;;;;;;;;;;2132391;27;20368;-49
2022/10/04 05:05:13;;;;;;;;;;;;;;;;;;2132309;27;19922;-45
2022/10/04 05:06:13;;;;;;;;;;;;;;;;;;2132288;27;19968;-47
2022/10/04 05:07:14;;;;;;;;;;;;;;;;;;2132117;27;19983;-48
2022/10/04 05:08:15;;;;;;;;;;;;;;;;;;2132304;27;20159;-47
2022/10/04 05:09:16;;;;;;;;;;;;;;;;;;2132127;27;19933;-48
2022/10/04 05:10:17;;;;;;;;;;;;;;;;;;2132276;27;19931;-47
2022/10/04 05:11:18;;;;;;;;;;;;;;;;;;2132235;27;20449;-47
2022/10/04 05:12:19;;;;;;;;;;;;;;;;;;2132171;27;19923;-48
2022/10/04 05:13:20;;;;;;;;;;;;;;;;;;2132221;27;19930;-48
2022/10/04 05:14:21;;;;;;;;;;;;;;;;;;2132231;27;20376;-47
2022/10/04 05:15:22;;;;;;;;;;;;;;;;;;2132128;27;20417;-47
2022/10/04 05:16:23;;;;;;;;;;;;;;;;;;2131989;27;19923;-47
2022/10/04 05:17:24;;;;;;;;;;;;;;;;;;2132479;27;19923;-46
2022/10/04 05:18:25;;;;;;;;;;;;;;;;;;2132472;27;19968;-45
2022/10/04 05:19:29;;;;;;;;;;;;;;;;;;2132114;27;19923;-45
2022/10/04 05:20:30;;;;;;;;;;;;;;;;;;2132118;27;19923;-44
2022/10/04 05:21:31;;;;;;;;;;;;;;;;;;2132131;27;19923;-44
2022/10/04 05:22:32;;;;;;;;;;;;;;;;;;2132001;27;19970;-45
2022/10/04 05:23:33;;;;;;;;;;;;;;;;;;2132241;27;20025;-45
2022/10/04 05:24:34;;;;;;;;;;;;;;;;;;2131988;27;20376;-45
2022/10/04 05:25:35;;;;;;;;;;;;;;;;;;2132263;27;19927;-47
2022/10/04 05:26:36;;;;;;;;;;;;;;;;;;2132004;27;19923;-49
2022/10/04 05:27:36;;;;;;;;;;;;;;;;;;2132039;27;20129;-48
2022/10/04 05:28:37;;;;;;;;;;;;;;;;;;2132017;27;19941;-50
2022/10/04 05:29:38;;;;;;;;;;;;;;;;;;2131946;27;19944;-48
2022/10/04 05:30:39;;;;;;;;;;;;;;;;;;2132157;27;19962;-47
2022/10/04 05:31:40;;;;;;;;;;;;;;;;;;2132033;27;20300;-47
2022/10/04 05:32:41;;;;;;;;;;;;;;;;;;2132001;27;19923;-48
2022/10/04 05:33:42;;;;;;;;;;;;;;;;;;2132162;27;19930;-47
2022/10/04 05:34:44;;;;;;;;;;;;;;;;;;2132089;27;19923;-47
2022/10/04 05:35:44;;;;;;;;;;;;;;;;;;2132180;27;19923;-46
2022/10/04 05:36:45;;;;;;;;;;;;;;;;;;2132212;27;19923;-46
2022/10/04 05:37:46;;;;;;;;;;;;;;;;;;2132106;27;19923;-45
2022/10/04 05:38:47;;;;;;;;;;;;;;;;;;2131858;27;19927;-45
2022/10/04 05:39:48;;;;;;;;;;;;;;;;;;2132042;27;19923;-44
2022/10/04 05:40:49;;;;;;;;;;;;;;;;;;2132149;27;19999;-45
2022/10/04 05:41:49;;;;;;;;;;;;;;;;;;2132238;27;19923;-48
2022/10/04 05:42:51;;;;;;;;;;;;;;;;;;2131887;27;19974;-47
2022/10/04 05:43:51;;;;;;;;;;;;;;;;;;2132093;27;20276;-48
2022/10/04 05:44:52;;;;;;;;;;;;;;;;;;2132237;27;19923;-44
2022/10/04 05:45:53;;;;;;;;;;;;;;;;;;2132036;27;20333;-45
2022/10/04 05:46:54;;;;;;;;;;;;;;;;;;2132196;27;19945;-48
2022/10/04 05:47:54;;;;;;;;;;;;;;;;;;2132121;27;20300;-47
2022/10/04 05:48:55;;;;;;;;;;;;;;;;;;2132112;27;20393;-44
2022/10/04 05:49:56;;;;;;;;;;;;;;;;;;2131898;27;19923;-44
2022/10/04 05:50:57;;;;;;;;;;;;;;;;;;2132056;27;19930;-44
2022/10/04 05:51:58;;;;;;;;;;;;;;;;;;2131904;27;20438;-45
2022/10/04 05:52:59;;;;;;;;;;;;;;;;;;2132015;27;19930;-44
2022/10/04 05:54:00;;;;;;;;;;;;;;;;;;2131881;27;20330;-44
2022/10/04 05:55:01;;;;;;;;;;;;;;;;;;2131975;27;19923;-43
2022/10/04 05:56:02;;;;;;;;;;;;;;;;;;2131845;27;19946;-44
2022/10/04 05:57:03;;;;;;;;;;;;;;;;;;2131850;27;20379;-44
2022/10/04 05:58:04;;;;;;;;;;;;;;;;;;2131997;27;20014;-43
2022/10/04 05:59:05;;;;;;;;;;;;;;;;;;2132044;27;20034;-45
2022/10/04 06:00:06;;;;;;;;;;;;;;;;;;2132044;27;19923;-43
2022/10/04 06:01:08;;;;;;;;;;;;;;;;;;2131885;27;20017;-43
2022/10/04 06:02:09;;;;;;;;;;;;;;;;;;2131730;27;19931;-45
2022/10/04 06:03:10;;;;;;;;;;;;;;;;;;2131785;27;19927;-46
2022/10/04 06:04:11;;;;;;;;;;;;;;;;;;2131851;27;19944;-46
2022/10/04 06:05:14;;;;;;;;;;;;;;;;;;2131920;27;20014;-46
2022/10/04 06:06:15;;;;;;;;;;;;;;;;;;2131870;27;19931;-48
2022/10/04 06:07:16;;;;;;;;;;;;;;;;;;2131911;27;19923;-46
2022/10/04 06:08:17;;;;;;;;;;;;;;;;;;2131793;27;19927;-47
2022/10/04 06:09:18;;;;;;;;;;;;;;;;;;2132068;27;19930;-46
2022/10/04 06:10:18;;;;;;;;;;;;;;;;;;2131808;27;19929;-46
2022/10/04 06:11:19;;;;;;;;;;;;;;;;;;2131600;27;19929;-47
2022/10/04 06:12:23;;;;;;;;;;;;;;;;;;2131696;27;19923;-46
2022/10/04 06:13:25;;;;;;;;;;;;;;;;;;2131921;27;19923;-46
2022/10/04 06:14:26;;;;;;;;;;;;;;;;;;2132037;27;19923;-46
2022/10/04 06:15:27;;;;;;;;;;;;;;;;;;2131620;27;20284;-45
2022/10/04 06:16:27;;;;;;;;;;;;;;;;;;2132136;27;19931;-45
2022/10/04 06:17:28;;;;;;;;;;;;;;;;;;2132084;27;20380;-48
2022/10/04 06:18:29;;;;;;;;;;;;;;;;;;2132152;27;19930;-47
2022/10/04 06:19:30;;;;;;;;;;;;;;;;;;2132546;27;19968;-47
2022/10/04 06:20:31;;;;;;;;;;;;;;;;;;2132270;27;19923;-47
2022/10/04 06:21:32;;;;;;;;;;;;;;;;;;2131799;27;19924;-44
2022/10/04 06:22:32;;;;;;;;;;;;;;;;;;2131930;27;19933;-43
2022/10/04 06:23:33;;;;;;;;;;;;;;;;;;2131923;27;19923;-43
2022/10/04 06:24:36;;;;;;;;;;;;;;;;;;2132226;27;19923;-44
2022/10/04 06:25:37;;;;;;;;;;;;;;;;;;2131757;27;19930;-44
2022/10/04 06:26:39;;;;;;;;;;;;;;;;;;2131911;27;19937;-46
2022/10/04 06:27:40;;;;;;;;;;;;;;;;;;2132139;27;19977;-45
2022/10/04 06:28:41;;;;;;;;;;;;;;;;;;2131690;27;20380;-46
2022/10/04 06:29:42;;;;;;;;;;;;;;;;;;2131809;27;19955;-45
2022/10/04 06:30:43;;;;;;;;;;;;;;;;;;2131826;27;20283;-47
2022/10/04 06:31:45;;;;;;;;;;;;;;;;;;2131710;27;19923;-46
2022/10/04 06:32:46;;;;;;;;;;;;;;;;;;2131734;27;19923;-47
2022/10/04 06:33:47;;;;;;;;;;;;;;;;;;2131745;27;20376;-45
2022/10/04 06:34:48;;;;;;;;;;;;;;;;;;2131483;27;19954;-45
2022/10/04 06:35:49;;;;;;;;;;;;;;;;;;2131676;27;20287;-46
2022/10/04 06:36:49;;;;;;;;;;;;;;;;;;2131825;27;19931;-43
2022/10/04 06:37:50;;;;;;;;;;;;;;;;;;2131994;27;19923;-46
2022/10/04 06:38:51;;;;;;;;;;;;;;;;;;2131819;27;19923;-43
2022/10/04 06:39:52;;;;;;;;;;;;;;;;;;2131794;27;20056;-46
2022/10/04 06:40:53;;;;;;;;;;;;;;;;;;2131595;27;20381;-46
2022/10/04 06:41:54;;;;;;;;;;;;;;;;;;2132005;27;19923;-43
2022/10/04 06:42:54;;;;;;;;;;;;;;;;;;2132032;27;20404;-43
2022/10/04 06:43:56;;;;;;;;;;;;;;;;;;2132223;27;20014;-43
2022/10/04 06:44:57;;;;;;;;;;;;;;;;;;2132766;27;19988;-43
2022/10/04 06:45:58;;;;;;;;;;;;;;;;;;2133114;27;20067;-43
2022/10/04 06:46:59;;;;;;;;;;;;;;;;;;2133195;27;19930;-43
2022/10/04 06:48:00;;;;;;;;;;;;;;;;;;2133157;27;20481;-43
2022/10/04 06:49:00;;;;;;;;;;;;;;;;;;2133093;27;19923;-46
2022/10/04 06:50:01;;;;;;;;;;;;;;;;;;2133454;27;19923;-43
2022/10/04 06:51:02;;;;;;;;;;;;;;;;;;2133407;27;19957;-46
2022/10/04 06:52:03;;;;;;;;;;;;;;;;;;2133019;27;20257;-45
2022/10/04 06:53:04;;;;;;;;;;;;;;;;;;2133042;27;20014;-46
2022/10/04 06:54:05;;;;;;;;;;;;;;;;;;2133412;27;20431;-43
2022/10/04 06:55:05;;;;;;;;;;;;;;;;;;2132926;27;19977;-43
2022/10/04 06:56:06;;;;;;;;;;;;;;;;;;2133085;27;20018;-43
2022/10/04 06:57:07;;;;;;;;;;;;;;;;;;2132976;27;19923;-43
2022/10/04 06:58:08;;;;;;;;;;;;;;;;;;2133165;27;19988;-46
2022/10/04 06:59:10;;;;;;;;;;;;;;;;;;2133017;27;20276;-46
2022/10/04 07:00:11;;;;;;;;;;;;;;;;;;2133012;27;20360;-45
2022/10/04 07:01:12;;;;;;;;;;;;;;;;;;2133149;27;19923;-46